sensor_id;sensor_type;location;lat;lon;timestamp;temperature;humidity
22666;DHT22;11499;49.486;11.104;2022-09-09T00:00:37;12.50;99.90
22666;DHT22;11499;49.486;11.104;2022-09-09T00:03:34;12.50;99.90
22666;DHT22;11499;49.486;11.104;2022-09-09T00:09:11;12.50;99.90
22666;DHT22;11499;49.486;11.104;2022-09-09T00:11:43;12.50;99.90
22666;DHT22;11499;49.486;11.104;2022-09-09T00:14:39;12.50;99.90
22666;DHT22;11499;49.486;11.104;2022-09-09T00:25:12;12.40;99.90
22666;DHT22;11499;49.486;11.104;2022-09-09T00:27:46;12.40;99.90
22666;DHT22;11499;49.486;11.104;2022-09-09T00:30:25;12.40;99.90
22666;DHT22;11499;49.486;11.104;2022-09-09T00:32:59;12.40;99.90
22666;DHT22;11499;49.486;11.104;2022-09-09T00:35:29;12.40;99.90
22666;DHT22;11499;49.486;11.104;2022-09-09T00:37:57;12.40;99.90
22666;DHT22;11499;49.486;11.104;2022-09-09T00:43:32;12.50;99.90
22666;DHT22;11499;49.486;11.104;2022-09-09T00:54:21;12.50;99.90
22666;DHT22;11499;49.486;11.104;2022-09-09T00:57:12;12.60;99.90
22666;DHT22;11499;49.486;11.104;2022-09-09T01:10:51;12.50;99.90
22666;DHT22;11499;49.486;11.104;2022-09-09T01:13:30;12.50;99.90
22666;DHT22;11499;49.486;11.104;2022-09-09T01:18:46;12.40;99.90
22666;DHT22;11499;49.486;11.104;2022-09-09T01:24:17;12.40;99.90
22666;DHT22;11499;49.486;11.104;2022-09-09T01:26:46;12.40;99.90
22666;DHT22;11499;49.486;11.104;2022-09-09T01:29:15;12.30;99.90
22666;DHT22;11499;49.486;11.104;2022-09-09T01:34:18;12.40;99.90
22666;DHT22;11499;49.486;11.104;2022-09-09T01:37:06;12.40;99.90
22666;DHT22;11499;49.486;11.104;2022-09-09T01:39:37;12.40;99.90
22666;DHT22;11499;49.486;11.104;2022-09-09T01:42:06;12.50;99.90
22666;DHT22;11499;49.486;11.104;2022-09-09T01:44:34;12.50;99.90
22666;DHT22;11499;49.486;11.104;2022-09-09T01:47:01;12.50;99.90
22666;DHT22;11499;49.486;11.104;2022-09-09T01:51:15;12.50;99.90
22666;DHT22;11499;49.486;11.104;2022-09-09T01:53:41;12.60;99.90
22666;DHT22;11499;49.486;11.104;2022-09-09T01:59:40;12.70;99.90
22666;DHT22;11499;49.486;11.104;2022-09-09T02:02:14;12.80;99.90
22666;DHT22;11499;49.486;11.104;2022-09-09T02:04:49;12.90;99.90
22666;DHT22;11499;49.486;11.104;2022-09-09T02:07:40;13.00;99.90
22666;DHT22;11499;49.486;11.104;2022-09-09T02:10:16;13.10;99.90
22666;DHT22;11499;49.486;11.104;2022-09-09T02:12:47;13.10;99.90
22666;DHT22;11499;49.486;11.104;2022-09-09T02:18:13;13.20;99.90
22666;DHT22;11499;49.486;11.104;2022-09-09T02:20:42;13.40;99.90
22666;DHT22;11499;49.486;11.104;2022-09-09T02:23:09;13.50;99.90
22666;DHT22;11499;49.486;11.104;2022-09-09T02:25:37;13.50;99.90
22666;DHT22;11499;49.486;11.104;2022-09-09T02:28:06;13.50;99.90
22666;DHT22;11499;49.486;11.104;2022-09-09T02:30:33;13.50;99.90
22666;DHT22;11499;49.486;11.104;2022-09-09T02:33:01;13.50;99.90
22666;DHT22;11499;49.486;11.104;2022-09-09T02:35:29;13.50;99.90
22666;DHT22;11499;49.486;11.104;2022-09-09T02:37:58;13.50;99.90
22666;DHT22;11499;49.486;11.104;2022-09-09T02:40:25;13.50;99.90
22666;DHT22;11499;49.486;11.104;2022-09-09T02:45:51;13.50;99.90
22666;DHT22;11499;49.486;11.104;2022-09-09T02:48:30;13.50;99.90
22666;DHT22;11499;49.486;11.104;2022-09-09T02:51:11;13.50;99.90
22666;DHT22;11499;49.486;11.104;2022-09-09T02:54:06;13.60;99.90
22666;DHT22;11499;49.486;11.104;2022-09-09T02:56:39;13.60;99.90
22666;DHT22;11499;49.486;11.104;2022-09-09T02:59:05;13.60;99.90
22666;DHT22;11499;49.486;11.104;2022-09-09T03:01:31;13.70;99.90
22666;DHT22;11499;49.486;11.104;2022-09-09T03:03:57;13.70;99.90
22666;DHT22;11499;49.486;11.104;2022-09-09T03:06:22;13.60;99.90
22666;DHT22;11499;49.486;11.104;2022-09-09T03:08:48;13.60;99.90
22666;DHT22;11499;49.486;11.104;2022-09-09T03:13:22;13.50;99.90
22666;DHT22;11499;49.486;11.104;2022-09-09T03:15:48;13.40;99.90
22666;DHT22;11499;49.486;11.104;2022-09-09T03:18:14;13.40;99.90
22666;DHT22;11499;49.486;11.104;2022-09-09T03:20:39;13.40;99.90
22666;DHT22;11499;49.486;11.104;2022-09-09T03:23:07;13.50;99.90
22666;DHT22;11499;49.486;11.104;2022-09-09T03:25:33;13.50;99.90
22666;DHT22;11499;49.486;11.104;2022-09-09T03:27:59;13.60;99.90
22666;DHT22;11499;49.486;11.104;2022-09-09T03:30:26;13.60;99.90
22666;DHT22;11499;49.486;11.104;2022-09-09T03:32:52;13.60;99.90
22666;DHT22;11499;49.486;11.104;2022-09-09T03:35:17;13.50;99.90
22666;DHT22;11499;49.486;11.104;2022-09-09T03:40:34;13.40;99.90
22666;DHT22;11499;49.486;11.104;2022-09-09T03:43:00;13.40;99.90
22666;DHT22;11499;49.486;11.104;2022-09-09T03:45:25;13.40;99.90
22666;DHT22;11499;49.486;11.104;2022-09-09T03:47:51;13.40;99.90
22666;DHT22;11499;49.486;11.104;2022-09-09T03:50:16;13.40;99.90
22666;DHT22;11499;49.486;11.104;2022-09-09T03:52:43;13.40;99.90
22666;DHT22;11499;49.486;11.104;2022-09-09T03:55:09;13.40;99.90
22666;DHT22;11499;49.486;11.104;2022-09-09T03:57:35;13.50;99.90
22666;DHT22;11499;49.486;11.104;2022-09-09T04:00:05;13.60;99.90
22666;DHT22;11499;49.486;11.104;2022-09-09T04:02:32;13.60;99.90
22666;DHT22;11499;49.486;11.104;2022-09-09T04:07:56;13.80;99.90
22666;DHT22;11499;49.486;11.104;2022-09-09T04:10:22;13.80;99.90
22666;DHT22;11499;49.486;11.104;2022-09-09T04:12:48;13.90;99.90
22666;DHT22;11499;49.486;11.104;2022-09-09T04:15:13;13.90;99.90
22666;DHT22;11499;49.486;11.104;2022-09-09T04:17:39;14.00;99.90
22666;DHT22;11499;49.486;11.104;2022-09-09T04:20:05;14.00;99.90
22666;DHT22;11499;49.486;11.104;2022-09-09T04:22:30;14.00;99.90
22666;DHT22;11499;49.486;11.104;2022-09-09T04:24:57;14.10;99.90
22666;DHT22;11499;49.486;11.104;2022-09-09T04:27:22;14.10;99.90
22666;DHT22;11499;49.486;11.104;2022-09-09T04:29:48;14.10;99.90
22666;DHT22;11499;49.486;11.104;2022-09-09T04:35:09;14.10;99.90
22666;DHT22;11499;49.486;11.104;2022-09-09T04:37:34;14.20;99.90
22666;DHT22;11499;49.486;11.104;2022-09-09T04:40:00;14.20;99.90
22666;DHT22;11499;49.486;11.104;2022-09-09T04:42:27;14.20;99.90
22666;DHT22;11499;49.486;11.104;2022-09-09T04:44:53;14.20;99.90
22666;DHT22;11499;49.486;11.104;2022-09-09T04:47:19;14.10;99.90
22666;DHT22;11499;49.486;11.104;2022-09-09T04:49:45;14.10;99.90
22666;DHT22;11499;49.486;11.104;2022-09-09T04:52:10;14.00;99.90
22666;DHT22;11499;49.486;11.104;2022-09-09T04:54:36;13.90;99.90
22666;DHT22;11499;49.486;11.104;2022-09-09T04:57:01;13.90;99.90
22666;DHT22;11499;49.486;11.104;2022-09-09T05:02:29;13.90;99.90
22666;DHT22;11499;49.486;11.104;2022-09-09T05:04:55;13.90;99.90
22666;DHT22;11499;49.486;11.104;2022-09-09T05:07:21;14.00;99.90
22666;DHT22;11499;49.486;11.104;2022-09-09T05:09:46;14.10;99.90
22666;DHT22;11499;49.486;11.104;2022-09-09T05:12:15;14.10;99.90
22666;DHT22;11499;49.486;11.104;2022-09-09T05:14:42;14.20;99.90
22666;DHT22;11499;49.486;11.104;2022-09-09T05:17:07;14.30;99.90
22666;DHT22;11499;49.486;11.104;2022-09-09T05:19:33;14.30;99.90
22666;DHT22;11499;49.486;11.104;2022-09-09T05:21:58;14.40;99.90
22666;DHT22;11499;49.486;11.104;2022-09-09T05:24:24;14.50;99.90
22666;DHT22;11499;49.486;11.104;2022-09-09T05:29:28;14.50;99.90
22666;DHT22;11499;49.486;11.104;2022-09-09T05:31:53;14.50;99.90
22666;DHT22;11499;49.486;11.104;2022-09-09T05:34:19;14.60;99.90
22666;DHT22;11499;49.486;11.104;2022-09-09T05:36:46;14.60;99.90
22666;DHT22;11499;49.486;11.104;2022-09-09T05:39:12;14.70;99.90
22666;DHT22;11499;49.486;11.104;2022-09-09T05:41:37;14.70;99.90
22666;DHT22;11499;49.486;11.104;2022-09-09T05:44:03;14.80;99.90
22666;DHT22;11499;49.486;11.104;2022-09-09T05:46:29;15.00;99.90
22666;DHT22;11499;49.486;11.104;2022-09-09T05:48:55;15.00;99.90
22666;DHT22;11499;49.486;11.104;2022-09-09T05:51:22;15.20;99.90
22666;DHT22;11499;49.486;11.104;2022-09-09T05:56:32;15.20;99.90
22666;DHT22;11499;49.486;11.104;2022-09-09T05:58:58;15.20;99.90
22666;DHT22;11499;49.486;11.104;2022-09-09T06:01:27;15.20;99.90
22666;DHT22;11499;49.486;11.104;2022-09-09T06:03:54;15.20;99.90
22666;DHT22;11499;49.486;11.104;2022-09-09T06:06:25;15.30;99.90
22666;DHT22;11499;49.486;11.104;2022-09-09T06:08:55;15.50;99.90
22666;DHT22;11499;49.486;11.104;2022-09-09T06:11:27;15.60;99.90
22666;DHT22;11499;49.486;11.104;2022-09-09T06:13:53;15.70;99.90
22666;DHT22;11499;49.486;11.104;2022-09-09T06:16:21;15.80;99.90
22666;DHT22;11499;49.486;11.104;2022-09-09T06:21:30;15.80;99.90
22666;DHT22;11499;49.486;11.104;2022-09-09T06:23:56;15.80;99.90
22666;DHT22;11499;49.486;11.104;2022-09-09T06:26:24;15.90;99.90
22666;DHT22;11499;49.486;11.104;2022-09-09T06:28:52;16.00;99.90
22666;DHT22;11499;49.486;11.104;2022-09-09T06:31:20;16.20;99.90
22666;DHT22;11499;49.486;11.104;2022-09-09T06:33:48;16.40;99.90
22666;DHT22;11499;49.486;11.104;2022-09-09T06:36:16;16.70;99.90
22666;DHT22;11499;49.486;11.104;2022-09-09T06:38:43;17.00;99.90
22666;DHT22;11499;49.486;11.104;2022-09-09T06:41:10;17.50;99.90
22666;DHT22;11499;49.486;11.104;2022-09-09T06:43:35;17.80;99.90
22666;DHT22;11499;49.486;11.104;2022-09-09T06:48:30;17.90;99.90
22666;DHT22;11499;49.486;11.104;2022-09-09T06:51:13;17.90;99.90
22666;DHT22;11499;49.486;11.104;2022-09-09T06:53:41;17.90;99.90
22666;DHT22;11499;49.486;11.104;2022-09-09T06:58:39;18.30;99.60
22666;DHT22;11499;49.486;11.104;2022-09-09T07:01:08;18.40;99.10
22666;DHT22;11499;49.486;11.104;2022-09-09T07:03:33;18.70;98.30
22666;DHT22;11499;49.486;11.104;2022-09-09T07:06:00;18.70;97.90
22666;DHT22;11499;49.486;11.104;2022-09-09T07:08:26;18.80;97.60
22666;DHT22;11499;49.486;11.104;2022-09-09T07:10:52;18.80;96.80
22666;DHT22;11499;49.486;11.104;2022-09-09T07:16:22;18.90;96.20
22666;DHT22;11499;49.486;11.104;2022-09-09T07:18:51;19.20;95.20
22666;DHT22;11499;49.486;11.104;2022-09-09T07:21:18;19.30;95.10
22666;DHT22;11499;49.486;11.104;2022-09-09T07:23:44;19.10;95.20
22666;DHT22;11499;49.486;11.104;2022-09-09T07:26:12;19.20;94.40
22666;DHT22;11499;49.486;11.104;2022-09-09T07:28:38;19.40;94.30
22666;DHT22;11499;49.486;11.104;2022-09-09T07:31:05;19.20;93.80
22666;DHT22;11499;49.486;11.104;2022-09-09T07:33:32;19.10;93.70
22666;DHT22;11499;49.486;11.104;2022-09-09T07:36:06;18.90;93.70
22666;DHT22;11499;49.486;11.104;2022-09-09T07:38:37;19.00;93.90
22666;DHT22;11499;49.486;11.104;2022-09-09T07:44:18;18.70;94.20
22666;DHT22;11499;49.486;11.104;2022-09-09T07:46:44;18.70;94.10
22666;DHT22;11499;49.486;11.104;2022-09-09T07:49:11;18.90;93.80
22666;DHT22;11499;49.486;11.104;2022-09-09T07:51:42;18.90;93.70
22666;DHT22;11499;49.486;11.104;2022-09-09T07:54:10;19.00;93.10
22666;DHT22;11499;49.486;11.104;2022-09-09T07:56:37;19.00;93.30
22666;DHT22;11499;49.486;11.104;2022-09-09T07:59:03;19.20;92.90
22666;DHT22;11499;49.486;11.104;2022-09-09T08:01:34;19.80;92.00
22666;DHT22;11499;49.486;11.104;2022-09-09T08:04:04;20.30;91.50
22666;DHT22;11499;49.486;11.104;2022-09-09T08:09:28;20.90;89.90
22666;DHT22;11499;49.486;11.104;2022-09-09T08:11:55;21.10;87.80
22666;DHT22;11499;49.486;11.104;2022-09-09T08:14:24;20.90;88.80
22666;DHT22;11499;49.486;11.104;2022-09-09T08:16:50;20.80;88.30
22666;DHT22;11499;49.486;11.104;2022-09-09T08:19:16;20.90;87.90
22666;DHT22;11499;49.486;11.104;2022-09-09T08:21:43;20.90;88.20
22666;DHT22;11499;49.486;11.104;2022-09-09T08:24:10;20.60;87.50
22666;DHT22;11499;49.486;11.104;2022-09-09T08:26:38;20.50;87.40
22666;DHT22;11499;49.486;11.104;2022-09-09T08:29:06;20.30;88.20
22666;DHT22;11499;49.486;11.104;2022-09-09T08:31:36;20.40;86.70
22666;DHT22;11499;49.486;11.104;2022-09-09T08:36:51;20.20;86.90
22666;DHT22;11499;49.486;11.104;2022-09-09T08:39:19;20.40;85.80
22666;DHT22;11499;49.486;11.104;2022-09-09T08:41:57;20.40;86.20
22666;DHT22;11499;49.486;11.104;2022-09-09T08:52:30;20.30;84.60
22666;DHT22;11499;49.486;11.104;2022-09-09T08:55:12;20.00;85.70
22666;DHT22;11499;49.486;11.104;2022-09-09T08:57:40;20.10;84.10
22666;DHT22;11499;49.486;11.104;2022-09-09T09:00:09;20.30;85.00
22666;DHT22;11499;49.486;11.104;2022-09-09T09:05:22;20.70;84.80
22666;DHT22;11499;49.486;11.104;2022-09-09T09:08:10;21.10;83.30
22666;DHT22;11499;49.486;11.104;2022-09-09T09:10:58;21.40;83.00
22666;DHT22;11499;49.486;11.104;2022-09-09T09:13:37;21.50;81.50
22666;DHT22;11499;49.486;11.104;2022-09-09T09:16:27;21.80;81.90
22666;DHT22;11499;49.486;11.104;2022-09-09T09:18:54;22.20;80.40
22666;DHT22;11499;49.486;11.104;2022-09-09T09:24:12;22.20;77.70
22666;DHT22;11499;49.486;11.104;2022-09-09T09:26:42;22.20;78.10
22666;DHT22;11499;49.486;11.104;2022-09-09T09:31:52;22.60;78.30
22666;DHT22;11499;49.486;11.104;2022-09-09T09:34:19;23.00;75.40
22666;DHT22;11499;49.486;11.104;2022-09-09T09:36:53;22.70;73.80
22666;DHT22;11499;49.486;11.104;2022-09-09T09:39:24;22.50;75.00
22666;DHT22;11499;49.486;11.104;2022-09-09T09:41:51;22.30;74.30
22666;DHT22;11499;49.486;11.104;2022-09-09T09:44:31;22.10;73.90
22666;DHT22;11499;49.486;11.104;2022-09-09T09:47:08;22.00;73.10
22666;DHT22;11499;49.486;11.104;2022-09-09T09:49:33;21.70;73.70
22666;DHT22;11499;49.486;11.104;2022-09-09T09:52:06;21.40;75.10
22666;DHT22;11499;49.486;11.104;2022-09-09T09:57:48;22.20;72.90
22666;DHT22;11499;49.486;11.104;2022-09-09T10:00:18;22.30;73.60
22666;DHT22;11499;49.486;11.104;2022-09-09T10:02:46;22.50;71.50
22666;DHT22;11499;49.486;11.104;2022-09-09T10:05:15;22.90;72.90
22666;DHT22;11499;49.486;11.104;2022-09-09T10:07:41;23.60;69.90
22666;DHT22;11499;49.486;11.104;2022-09-09T10:10:24;24.20;68.80
22666;DHT22;11499;49.486;11.104;2022-09-09T10:13:09;24.60;67.20
22666;DHT22;11499;49.486;11.104;2022-09-09T10:18:36;24.00;66.50
22666;DHT22;11499;49.486;11.104;2022-09-09T10:27:33;23.50;66.40
22666;DHT22;11499;49.486;11.104;2022-09-09T10:32:42;23.50;66.80
22666;DHT22;11499;49.486;11.104;2022-09-09T10:35:30;23.80;65.40
22666;DHT22;11499;49.486;11.104;2022-09-09T10:40:58;24.10;65.30
22666;DHT22;11499;49.486;11.104;2022-09-09T10:51:27;23.60;65.50
22666;DHT22;11499;49.486;11.104;2022-09-09T10:56:44;22.90;65.90
22666;DHT22;11499;49.486;11.104;2022-09-09T10:59:24;22.80;65.90
22666;DHT22;11499;49.486;11.104;2022-09-09T11:01:52;22.70;67.30
22666;DHT22;11499;49.486;11.104;2022-09-09T11:04:33;22.40;67.40
22666;DHT22;11499;49.486;11.104;2022-09-09T11:07:04;22.60;67.90
22666;DHT22;11499;49.486;11.104;2022-09-09T11:09:34;22.90;67.20
22666;DHT22;11499;49.486;11.104;2022-09-09T11:12:02;23.10;67.80
22666;DHT22;11499;49.486;11.104;2022-09-09T11:14:43;23.20;66.60
22666;DHT22;11499;49.486;11.104;2022-09-09T11:19:04;23.20;66.30
22666;DHT22;11499;49.486;11.104;2022-09-09T11:21:44;23.40;65.60
22666;DHT22;11499;49.486;11.104;2022-09-09T11:27:13;23.40;65.30
22666;DHT22;11499;49.486;11.104;2022-09-09T11:30:05;23.80;65.70
22666;DHT22;11499;49.486;11.104;2022-09-09T11:32:47;24.10;64.00
22666;DHT22;11499;49.486;11.104;2022-09-09T11:35:30;24.10;64.20
22666;DHT22;11499;49.486;11.104;2022-09-09T11:40:39;24.70;61.60
22666;DHT22;11499;49.486;11.104;2022-09-09T11:45:52;24.40;61.90
22666;DHT22;11499;49.486;11.104;2022-09-09T11:48:36;25.10;59.70
22666;DHT22;11499;49.486;11.104;2022-09-09T11:51:05;25.20;60.00
22666;DHT22;11499;49.486;11.104;2022-09-09T11:53:33;25.30;60.00
22666;DHT22;11499;49.486;11.104;2022-09-09T11:56:03;25.20;59.10
22666;DHT22;11499;49.486;11.104;2022-09-09T11:58:36;25.20;59.60
22666;DHT22;11499;49.486;11.104;2022-09-09T12:01:13;25.10;59.70
22666;DHT22;11499;49.486;11.104;2022-09-09T12:03:49;24.90;59.90
22666;DHT22;11499;49.486;11.104;2022-09-09T12:06:30;25.10;59.70
22666;DHT22;11499;49.486;11.104;2022-09-09T12:11:39;24.90;59.40
22666;DHT22;11499;49.486;11.104;2022-09-09T12:14:19;24.80;59.90
22666;DHT22;11499;49.486;11.104;2022-09-09T12:16:46;24.90;60.40
22666;DHT22;11499;49.486;11.104;2022-09-09T12:22:15;25.20;57.80
22666;DHT22;11499;49.486;11.104;2022-09-09T12:24:49;24.90;56.80
22666;DHT22;11499;49.486;11.104;2022-09-09T12:27:28;25.20;56.90
22666;DHT22;11499;49.486;11.104;2022-09-09T12:30:11;25.40;57.70
22666;DHT22;11499;49.486;11.104;2022-09-09T12:32:37;26.10;57.00
22666;DHT22;11499;49.486;11.104;2022-09-09T12:37:58;26.60;55.60
22666;DHT22;11499;49.486;11.104;2022-09-09T12:40:32;26.50;51.90
22666;DHT22;11499;49.486;11.104;2022-09-09T12:43:01;25.90;48.90
22666;DHT22;11499;49.486;11.104;2022-09-09T12:45:30;25.60;48.90
22666;DHT22;11499;49.486;11.104;2022-09-09T12:48:10;24.70;50.60
22666;DHT22;11499;49.486;11.104;2022-09-09T12:50:50;23.90;52.20
22666;DHT22;11499;49.486;11.104;2022-09-09T12:53:30;23.60;54.20
22666;DHT22;11499;49.486;11.104;2022-09-09T12:56:21;23.50;54.70
22666;DHT22;11499;49.486;11.104;2022-09-09T12:58:49;23.40;55.90
22666;DHT22;11499;49.486;11.104;2022-09-09T13:04:24;23.20;57.10
22666;DHT22;11499;49.486;11.104;2022-09-09T13:06:49;23.30;58.00
22666;DHT22;11499;49.486;11.104;2022-09-09T13:09:15;22.70;58.20
22666;DHT22;11499;49.486;11.104;2022-09-09T13:11:47;21.30;66.20
22666;DHT22;11499;49.486;11.104;2022-09-09T13:14:21;20.40;70.80
22666;DHT22;11499;49.486;11.104;2022-09-09T13:16:56;20.10;73.30
22666;DHT22;11499;49.486;11.104;2022-09-09T13:19:22;20.50;73.20
22666;DHT22;11499;49.486;11.104;2022-09-09T13:21:51;19.80;73.30
22666;DHT22;11499;49.486;11.104;2022-09-09T13:24:32;19.70;72.40
22666;DHT22;11499;49.486;11.104;2022-09-09T13:29:55;19.60;74.70
22666;DHT22;11499;49.486;11.104;2022-09-09T13:32:22;20.10;73.70
22666;DHT22;11499;49.486;11.104;2022-09-09T13:34:59;20.40;72.50
22666;DHT22;11499;49.486;11.104;2022-09-09T13:37:37;20.40;72.90
22666;DHT22;11499;49.486;11.104;2022-09-09T13:40:04;20.20;74.10
22666;DHT22;11499;49.486;11.104;2022-09-09T13:42:41;20.20;72.70
22666;DHT22;11499;49.486;11.104;2022-09-09T13:45:18;20.40;73.10
22666;DHT22;11499;49.486;11.104;2022-09-09T13:47:46;20.60;73.30
22666;DHT22;11499;49.486;11.104;2022-09-09T13:50:22;20.60;73.20
22666;DHT22;11499;49.486;11.104;2022-09-09T13:55:37;20.50;73.20
22666;DHT22;11499;49.486;11.104;2022-09-09T13:58:04;19.90;73.20
22666;DHT22;11499;49.486;11.104;2022-09-09T14:00:33;20.30;72.90
22666;DHT22;11499;49.486;11.104;2022-09-09T14:02:59;20.40;69.50
22666;DHT22;11499;49.486;11.104;2022-09-09T14:05:29;20.80;68.10
22666;DHT22;11499;49.486;11.104;2022-09-09T14:07:55;21.20;66.00
22666;DHT22;11499;49.486;11.104;2022-09-09T14:10:21;21.30;65.10
22666;DHT22;11499;49.486;11.104;2022-09-09T14:12:47;21.30;64.60
22666;DHT22;11499;49.486;11.104;2022-09-09T14:15:13;21.30;63.30
22666;DHT22;11499;49.486;11.104;2022-09-09T14:20:27;22.00;61.50
22666;DHT22;11499;49.486;11.104;2022-09-09T14:22:53;22.10;61.40
22666;DHT22;11499;49.486;11.104;2022-09-09T14:25:18;21.90;62.10
22666;DHT22;11499;49.486;11.104;2022-09-09T14:27:44;22.20;61.80
22666;DHT22;11499;49.486;11.104;2022-09-09T14:30:11;22.30;61.70
22666;DHT22;11499;49.486;11.104;2022-09-09T14:32:37;22.30;61.90
22666;DHT22;11499;49.486;11.104;2022-09-09T14:35:03;21.70;63.40
22666;DHT22;11499;49.486;11.104;2022-09-09T14:37:28;21.80;63.90
22666;DHT22;11499;49.486;11.104;2022-09-09T14:39:56;22.00;63.70
22666;DHT22;11499;49.486;11.104;2022-09-09T14:42:22;22.10;64.10
22666;DHT22;11499;49.486;11.104;2022-09-09T14:46:56;22.20;64.10
22666;DHT22;11499;49.486;11.104;2022-09-09T14:49:21;22.40;65.30
22666;DHT22;11499;49.486;11.104;2022-09-09T14:51:47;22.40;65.60
22666;DHT22;11499;49.486;11.104;2022-09-09T14:54:13;22.50;65.90
22666;DHT22;11499;49.486;11.104;2022-09-09T14:56:40;22.60;65.70
22666;DHT22;11499;49.486;11.104;2022-09-09T14:59:05;22.30;65.80
22666;DHT22;11499;49.486;11.104;2022-09-09T15:01:31;22.30;66.40
22666;DHT22;11499;49.486;11.104;2022-09-09T15:04:03;22.10;67.20
22666;DHT22;11499;49.486;11.104;2022-09-09T15:06:30;22.10;67.10
22666;DHT22;11499;49.486;11.104;2022-09-09T15:08:58;22.30;66.90
22666;DHT22;11499;49.486;11.104;2022-09-09T15:14:26;22.40;68.20
22666;DHT22;11499;49.486;11.104;2022-09-09T15:16:52;22.60;67.80
22666;DHT22;11499;49.486;11.104;2022-09-09T15:19:17;23.20;66.50
22666;DHT22;11499;49.486;11.104;2022-09-09T15:21:43;23.30;66.00
22666;DHT22;11499;49.486;11.104;2022-09-09T15:24:08;23.40;66.10
22666;DHT22;11499;49.486;11.104;2022-09-09T15:26:34;23.30;65.30
22666;DHT22;11499;49.486;11.104;2022-09-09T15:29:03;23.10;65.20
22666;DHT22;11499;49.486;11.104;2022-09-09T15:31:30;22.80;65.90
22666;DHT22;11499;49.486;11.104;2022-09-09T15:34:01;22.70;66.20
22666;DHT22;11499;49.486;11.104;2022-09-09T15:39:13;22.50;66.70
22666;DHT22;11499;49.486;11.104;2022-09-09T15:41:46;21.60;68.80
22666;DHT22;11499;49.486;11.104;2022-09-09T15:44:13;21.60;69.50
22666;DHT22;11499;49.486;11.104;2022-09-09T15:46:45;21.50;68.80
22666;DHT22;11499;49.486;11.104;2022-09-09T15:49:16;21.30;68.00
22666;DHT22;11499;49.486;11.104;2022-09-09T15:51:45;21.40;68.40
22666;DHT22;11499;49.486;11.104;2022-09-09T15:54:19;21.30;69.10
22666;DHT22;11499;49.486;11.104;2022-09-09T15:56:47;21.30;69.40
22666;DHT22;11499;49.486;11.104;2022-09-09T15:59:15;21.20;69.60
22666;DHT22;11499;49.486;11.104;2022-09-09T16:01:41;21.20;69.50
22666;DHT22;11499;49.486;11.104;2022-09-09T16:06:40;20.80;69.10
22666;DHT22;11499;49.486;11.104;2022-09-09T16:09:06;20.40;68.70
22666;DHT22;11499;49.486;11.104;2022-09-09T16:11:36;20.50;69.50
22666;DHT22;11499;49.486;11.104;2022-09-09T16:14:03;20.60;66.60
22666;DHT22;11499;49.486;11.104;2022-09-09T16:16:30;20.70;65.60
22666;DHT22;11499;49.486;11.104;2022-09-09T16:18:57;20.80;64.10
22666;DHT22;11499;49.486;11.104;2022-09-09T16:21:25;21.00;62.70
22666;DHT22;11499;49.486;11.104;2022-09-09T16:23:52;21.30;62.00
22666;DHT22;11499;49.486;11.104;2022-09-09T16:26:21;21.40;60.50
22666;DHT22;11499;49.486;11.104;2022-09-09T16:28:48;21.90;60.50
22666;DHT22;11499;49.486;11.104;2022-09-09T16:34:03;22.00;58.20
22666;DHT22;11499;49.486;11.104;2022-09-09T16:36:30;21.60;58.00
22666;DHT22;11499;49.486;11.104;2022-09-09T16:39:03;21.90;58.60
22666;DHT22;11499;49.486;11.104;2022-09-09T16:41:29;22.10;58.30
22666;DHT22;11499;49.486;11.104;2022-09-09T16:43:57;22.00;58.10
22666;DHT22;11499;49.486;11.104;2022-09-09T16:46:25;22.00;58.30
22666;DHT22;11499;49.486;11.104;2022-09-09T16:48:51;21.90;58.30
22666;DHT22;11499;49.486;11.104;2022-09-09T16:51:19;21.90;58.60
22666;DHT22;11499;49.486;11.104;2022-09-09T16:53:46;21.80;57.90
22666;DHT22;11499;49.486;11.104;2022-09-09T16:56:17;21.70;58.10
22666;DHT22;11499;49.486;11.104;2022-09-09T17:01:33;21.60;58.70
22666;DHT22;11499;49.486;11.104;2022-09-09T17:04:03;21.40;59.00
22666;DHT22;11499;49.486;11.104;2022-09-09T17:06:31;21.30;59.20
22666;DHT22;11499;49.486;11.104;2022-09-09T17:09:01;21.20;59.40
22666;DHT22;11499;49.486;11.104;2022-09-09T17:11:29;21.10;59.40
22666;DHT22;11499;49.486;11.104;2022-09-09T17:13:56;21.00;59.70
22666;DHT22;11499;49.486;11.104;2022-09-09T17:16:24;21.00;60.00
22666;DHT22;11499;49.486;11.104;2022-09-09T17:18:50;20.70;60.10
22666;DHT22;11499;49.486;11.104;2022-09-09T17:21:19;20.40;60.20
22666;DHT22;11499;49.486;11.104;2022-09-09T17:26:26;20.10;62.10
22666;DHT22;11499;49.486;11.104;2022-09-09T17:28:53;19.90;63.20
22666;DHT22;11499;49.486;11.104;2022-09-09T17:31:20;19.70;64.00
22666;DHT22;11499;49.486;11.104;2022-09-09T17:33:48;19.50;65.00
22666;DHT22;11499;49.486;11.104;2022-09-09T17:36:19;19.40;65.40
22666;DHT22;11499;49.486;11.104;2022-09-09T17:38:47;19.30;65.00
22666;DHT22;11499;49.486;11.104;2022-09-09T17:41:14;19.20;65.50
22666;DHT22;11499;49.486;11.104;2022-09-09T17:43:40;19.20;66.00
22666;DHT22;11499;49.486;11.104;2022-09-09T17:46:14;19.20;66.40
22666;DHT22;11499;49.486;11.104;2022-09-09T17:48:40;19.10;66.60
22666;DHT22;11499;49.486;11.104;2022-09-09T17:53:47;19.10;66.00
22666;DHT22;11499;49.486;11.104;2022-09-09T17:56:15;19.00;65.10
22666;DHT22;11499;49.486;11.104;2022-09-09T17:58:41;19.00;65.90
22666;DHT22;11499;49.486;11.104;2022-09-09T18:01:09;18.90;66.30
22666;DHT22;11499;49.486;11.104;2022-09-09T18:03:37;18.80;66.30
22666;DHT22;11499;49.486;11.104;2022-09-09T18:06:05;18.70;66.70
22666;DHT22;11499;49.486;11.104;2022-09-09T18:08:32;18.60;66.60
22666;DHT22;11499;49.486;11.104;2022-09-09T18:10:58;18.50;65.50
22666;DHT22;11499;49.486;11.104;2022-09-09T18:13:25;18.50;66.50
22666;DHT22;11499;49.486;11.104;2022-09-09T18:15:51;18.40;66.90
22666;DHT22;11499;49.486;11.104;2022-09-09T18:20:59;18.30;67.40
22666;DHT22;11499;49.486;11.104;2022-09-09T18:23:26;18.10;66.90
22666;DHT22;11499;49.486;11.104;2022-09-09T18:25:52;18.10;67.20
22666;DHT22;11499;49.486;11.104;2022-09-09T18:28:17;18.10;67.10
22666;DHT22;11499;49.486;11.104;2022-09-09T18:30:45;18.10;67.40
22666;DHT22;11499;49.486;11.104;2022-09-09T18:33:10;18.10;67.50
22666;DHT22;11499;49.486;11.104;2022-09-09T18:35:36;18.00;67.90
22666;DHT22;11499;49.486;11.104;2022-09-09T18:38:02;18.00;68.20
22666;DHT22;11499;49.486;11.104;2022-09-09T18:40:30;18.00;68.20